Fort Worth - NOAA's Hourly Summary for Friday, April 14, 2017
Hour Temp
(f)
RH
(%)
Solar Rad.
(MJ/m2)
Rainfall
(in)
Wind
(mph)
4/14/2017 12:00 AM 71 66 0 0 4.73
4/14/2017 1:00 AM 70 66 0 0 5.44
4/14/2017 2:00 AM 70 65 0 0 7.22
4/14/2017 3:00 AM 69 67 0 0 5.83
4/14/2017 4:00 AM 68 72 0 0 7.03
4/14/2017 5:00 AM 67 76 0 0 7.52
4/14/2017 6:00 AM 67 78 0 0 4.46
4/14/2017 7:00 AM 66 81 0.05 0 2.99
4/14/2017 8:00 AM 67 81 0.36 0 4.5
4/14/2017 9:00 AM 68 79 0.88 0 5.54
4/14/2017 10:00 AM 69 77 1.19 0 6.15
4/14/2017 11:00 AM 73 65 2.81 0 6.83
4/14/2017 12:00 PM 75 59 3.19 0 8.6
4/14/2017 1:00 PM 77 53 3.12 0 9.48
4/14/2017 2:00 PM 77 50 3 0 9.15
4/14/2017 3:00 PM 78 49 2.53 0 8.16
4/14/2017 4:00 PM 79 49 2.28 0 7.66
4/14/2017 5:00 PM 78 47 1.45 0 8.22
4/14/2017 6:00 PM 78 48 0.79 0 8.4
4/14/2017 7:00 PM 76 51 0.1 0 6.7
4/14/2017 8:00 PM 74 58 0 0 6.71
4/14/2017 9:00 PM 73 64 0 0 5.86
4/14/2017 10:00 PM 72 65 0 0 6.62
4/14/2017 11:00 PM 71 67 0 0 7.51
Data Summary 72 63 21.75 0.00 6.72